Weather at London Gatwick Airport

Public forecast

Using degrees Celsius for public forecast. Weather courtesy of forecast.io.

Current aviation weather report (METAR) for London Gatwick Airport

Retrieved 2020/10/30 07:20 UTC (0 seconds ago):

EGKK 300720Z 23011KT 9999 BKN018 15/12 Q1015

Aviation forecast (TAF) for London Gatwick Airport

Retrieved 2020/10/30 06:00 UTC (1 hour ago):

TAF EGKK 300459Z 3006/3112 23013KT 9999 FEW007 BKN016 TEMPO 3006/3010 7000 -RADZ BKN012 PROB40 TEMPO 3006/3010 4000 RADZ BKN007 BECMG 3010/3013 8000 -RADZ BKN007 TEMPO 3010/3022 3000 RADZ PROB40 TEMPO 3016/3022 BKN003 BECMG 3022/3101 9999 NSW BKN012 BECMG 3101/3104 BKN030 BECMG 3105/3107 19015G25KT BECMG 3109/3112 18020G35KT PROB40 TEMPO 3111/3112 5000 RA